sensor_id;sensor_type;location;lat;lon;timestamp;P1;durP1;ratioP1;P2;durP2;ratioP2
10465;SDS011;5280;42.600;23.556;2023-04-15T00:00:12;3.27;;;1.73;;
10465;SDS011;5280;42.600;23.556;2023-04-15T00:02:40;2.27;;;2.03;;
10465;SDS011;5280;42.600;23.556;2023-04-15T00:05:08;3.93;;;1.60;;
10465;SDS011;5280;42.600;23.556;2023-04-15T00:07:35;1.77;;;1.47;;
10465;SDS011;5280;42.600;23.556;2023-04-15T00:10:03;2.27;;;1.50;;
10465;SDS011;5280;42.600;23.556;2023-04-15T00:12:30;1.77;;;0.90;;
10465;SDS011;5280;42.600;23.556;2023-04-15T00:14:57;0.80;;;0.80;;
10465;SDS011;5280;42.600;23.556;2023-04-15T00:17:24;1.43;;;1.07;;
10465;SDS011;5280;42.600;23.556;2023-04-15T00:19:51;0.90;;;0.90;;
10465;SDS011;5280;42.600;23.556;2023-04-15T00:22:20;0.80;;;0.80;;
10465;SDS011;5280;42.600;23.556;2023-04-15T00:24:47;0.80;;;0.80;;
10465;SDS011;5280;42.600;23.556;2023-04-15T00:27:14;0.80;;;0.80;;
10465;SDS011;5280;42.600;23.556;2023-04-15T00:29:41;0.77;;;0.77;;
10465;SDS011;5280;42.600;23.556;2023-04-15T00:32:08;2.23;;;1.00;;
10465;SDS011;5280;42.600;23.556;2023-04-15T00:34:35;1.27;;;0.90;;
10465;SDS011;5280;42.600;23.556;2023-04-15T00:37:02;1.37;;;1.00;;
10465;SDS011;5280;42.600;23.556;2023-04-15T00:39:30;0.60;;;0.60;;
10465;SDS011;5280;42.600;23.556;2023-04-15T00:41:57;0.93;;;0.80;;
10465;SDS011;5280;42.600;23.556;2023-04-15T00:44:24;1.30;;;0.80;;
10465;SDS011;5280;42.600;23.556;2023-04-15T00:46:51;0.70;;;0.70;;
10465;SDS011;5280;42.600;23.556;2023-04-15T00:49:18;0.83;;;0.80;;
10465;SDS011;5280;42.600;23.556;2023-04-15T00:51:45;0.80;;;0.80;;
10465;SDS011;5280;42.600;23.556;2023-04-15T00:54:12;1.47;;;1.37;;
10465;SDS011;5280;42.600;23.556;2023-04-15T00:56:40;0.80;;;0.80;;
10465;SDS011;5280;42.600;23.556;2023-04-15T00:59:07;2.57;;;0.90;;
10465;SDS011;5280;42.600;23.556;2023-04-15T01:01:35;0.93;;;0.90;;
10465;SDS011;5280;42.600;23.556;2023-04-15T01:04:02;2.10;;;1.03;;
10465;SDS011;5280;42.600;23.556;2023-04-15T01:06:30;1.03;;;1.03;;
10465;SDS011;5280;42.600;23.556;2023-04-15T01:08:57;1.50;;;1.13;;
10465;SDS011;5280;42.600;23.556;2023-04-15T01:11:25;2.60;;;1.60;;
10465;SDS011;5280;42.600;23.556;2023-04-15T01:13:55;1.70;;;1.50;;
10465;SDS011;5280;42.600;23.556;2023-04-15T01:16:24;2.70;;;1.43;;
10465;SDS011;5280;42.600;23.556;2023-04-15T01:18:52;1.53;;;1.40;;
10465;SDS011;5280;42.600;23.556;2023-04-15T01:21:19;2.57;;;1.40;;
10465;SDS011;5280;42.600;23.556;2023-04-15T01:23:47;3.57;;;1.60;;
10465;SDS011;5280;42.600;23.556;2023-04-15T01:26:16;3.23;;;2.20;;
10465;SDS011;5280;42.600;23.556;2023-04-15T01:28:43;1.23;;;1.00;;
10465;SDS011;5280;42.600;23.556;2023-04-15T01:31:11;1.30;;;1.10;;
10465;SDS011;5280;42.600;23.556;2023-04-15T01:33:40;1.40;;;1.30;;
10465;SDS011;5280;42.600;23.556;2023-04-15T01:36:08;1.53;;;1.10;;
10465;SDS011;5280;42.600;23.556;2023-04-15T01:38:36;1.30;;;0.87;;
10465;SDS011;5280;42.600;23.556;2023-04-15T01:41:03;1.10;;;1.00;;
10465;SDS011;5280;42.600;23.556;2023-04-15T01:43:33;1.20;;;0.70;;
10465;SDS011;5280;42.600;23.556;2023-04-15T01:46:00;2.90;;;1.23;;
10465;SDS011;5280;42.600;23.556;2023-04-15T01:48:27;1.90;;;1.00;;
10465;SDS011;5280;42.600;23.556;2023-04-15T01:50:54;1.77;;;1.10;;
10465;SDS011;5280;42.600;23.556;2023-04-15T01:53:22;2.37;;;1.17;;
10465;SDS011;5280;42.600;23.556;2023-04-15T01:55:50;1.90;;;0.87;;
10465;SDS011;5280;42.600;23.556;2023-04-15T01:58:17;0.90;;;0.90;;
10465;SDS011;5280;42.600;23.556;2023-04-15T02:00:46;1.67;;;0.90;;
10465;SDS011;5280;42.600;23.556;2023-04-15T02:03:13;2.57;;;1.07;;
10465;SDS011;5280;42.600;23.556;2023-04-15T02:05:40;0.80;;;0.80;;
10465;SDS011;5280;42.600;23.556;2023-04-15T02:08:06;0.83;;;0.80;;
10465;SDS011;5280;42.600;23.556;2023-04-15T02:10:34;0.90;;;0.90;;
10465;SDS011;5280;42.600;23.556;2023-04-15T02:13:01;1.13;;;0.90;;
10465;SDS011;5280;42.600;23.556;2023-04-15T02:15:28;0.97;;;0.87;;
10465;SDS011;5280;42.600;23.556;2023-04-15T02:17:57;0.80;;;0.80;;
10465;SDS011;5280;42.600;23.556;2023-04-15T02:20:25;1.90;;;1.00;;
10465;SDS011;5280;42.600;23.556;2023-04-15T02:22:56;1.50;;;1.13;;
10465;SDS011;5280;42.600;23.556;2023-04-15T02:25:23;1.70;;;1.20;;
10465;SDS011;5280;42.600;23.556;2023-04-15T02:27:49;1.23;;;1.13;;
10465;SDS011;5280;42.600;23.556;2023-04-15T02:30:17;2.47;;;1.30;;
10465;SDS011;5280;42.600;23.556;2023-04-15T02:32:44;1.97;;;1.40;;
10465;SDS011;5280;42.600;23.556;2023-04-15T02:35:13;2.10;;;1.10;;
10465;SDS011;5280;42.600;23.556;2023-04-15T02:37:43;1.73;;;1.40;;
10465;SDS011;5280;42.600;23.556;2023-04-15T02:40:10;1.30;;;1.20;;
10465;SDS011;5280;42.600;23.556;2023-04-15T02:42:38;4.03;;;1.60;;
10465;SDS011;5280;42.600;23.556;2023-04-15T02:45:05;1.87;;;1.10;;
10465;SDS011;5280;42.600;23.556;2023-04-15T02:47:32;3.80;;;1.40;;
10465;SDS011;5280;42.600;23.556;2023-04-15T02:50:00;1.63;;;0.93;;
10465;SDS011;5280;42.600;23.556;2023-04-15T02:52:29;1.30;;;1.20;;
10465;SDS011;5280;42.600;23.556;2023-04-15T02:54:58;1.10;;;1.00;;
10465;SDS011;5280;42.600;23.556;2023-04-15T02:57:26;1.50;;;1.13;;
10465;SDS011;5280;42.600;23.556;2023-04-15T02:59:54;2.10;;;1.10;;
10465;SDS011;5280;42.600;23.556;2023-04-15T03:02:20;2.60;;;1.30;;
10465;SDS011;5280;42.600;23.556;2023-04-15T03:04:47;2.37;;;1.77;;
10465;SDS011;5280;42.600;23.556;2023-04-15T03:07:14;3.33;;;1.13;;
10465;SDS011;5280;42.600;23.556;2023-04-15T03:09:44;1.93;;;1.40;;
10465;SDS011;5280;42.600;23.556;2023-04-15T03:12:12;1.30;;;1.20;;
10465;SDS011;5280;42.600;23.556;2023-04-15T03:14:38;2.73;;;1.33;;
10465;SDS011;5280;42.600;23.556;2023-04-15T03:17:05;1.27;;;1.10;;
10465;SDS011;5280;42.600;23.556;2023-04-15T03:19:32;1.33;;;1.23;;
10465;SDS011;5280;42.600;23.556;2023-04-15T03:21:59;3.20;;;1.23;;
10465;SDS011;5280;42.600;23.556;2023-04-15T03:24:26;3.47;;;1.87;;
10465;SDS011;5280;42.600;23.556;2023-04-15T03:26:55;4.87;;;1.50;;
10465;SDS011;5280;42.600;23.556;2023-04-15T03:29:23;3.97;;;1.60;;
10465;SDS011;5280;42.600;23.556;2023-04-15T03:36:54;2.57;;;2.33;;
10465;SDS011;5280;42.600;23.556;2023-04-15T03:39:22;3.33;;;2.30;;
10465;SDS011;5280;42.600;23.556;2023-04-15T03:41:49;2.47;;;2.27;;
10465;SDS011;5280;42.600;23.556;2023-04-15T03:44:17;2.53;;;2.23;;
10465;SDS011;5280;42.600;23.556;2023-04-15T03:46:44;3.20;;;2.20;;
10465;SDS011;5280;42.600;23.556;2023-04-15T03:49:12;3.83;;;2.20;;
10465;SDS011;5280;42.600;23.556;2023-04-15T03:51:39;3.80;;;2.07;;
10465;SDS011;5280;42.600;23.556;2023-04-15T03:54:06;2.73;;;1.73;;
10465;SDS011;5280;42.600;23.556;2023-04-15T03:56:33;3.23;;;1.57;;
10465;SDS011;5280;42.600;23.556;2023-04-15T03:59:00;3.10;;;1.70;;
10465;SDS011;5280;42.600;23.556;2023-04-15T04:01:28;2.13;;;1.60;;
10465;SDS011;5280;42.600;23.556;2023-04-15T04:03:55;4.90;;;1.30;;
10465;SDS011;5280;42.600;23.556;2023-04-15T04:06:22;1.23;;;1.13;;
10465;SDS011;5280;42.600;23.556;2023-04-15T04:08:50;2.17;;;1.20;;
10465;SDS011;5280;42.600;23.556;2023-04-15T04:11:17;1.17;;;1.10;;
10465;SDS011;5280;42.600;23.556;2023-04-15T04:13:44;1.83;;;1.33;;
10465;SDS011;5280;42.600;23.556;2023-04-15T04:16:11;4.30;;;1.33;;
10465;SDS011;5280;42.600;23.556;2023-04-15T04:18:39;2.70;;;1.50;;
10465;SDS011;5280;42.600;23.556;2023-04-15T04:21:06;1.90;;;1.30;;
10465;SDS011;5280;42.600;23.556;2023-04-15T04:23:33;2.30;;;2.10;;
10465;SDS011;5280;42.600;23.556;2023-04-15T04:25:59;5.47;;;2.30;;
10465;SDS011;5280;42.600;23.556;2023-04-15T04:28:26;3.10;;;2.33;;
10465;SDS011;5280;42.600;23.556;2023-04-15T04:30:53;2.53;;;1.70;;
10465;SDS011;5280;42.600;23.556;2023-04-15T04:33:20;2.37;;;1.70;;
10465;SDS011;5280;42.600;23.556;2023-04-15T04:35:48;2.63;;;1.50;;
10465;SDS011;5280;42.600;23.556;2023-04-15T04:38:15;1.30;;;1.20;;
10465;SDS011;5280;42.600;23.556;2023-04-15T04:40:42;2.43;;;1.40;;
10465;SDS011;5280;42.600;23.556;2023-04-15T04:43:09;1.57;;;1.43;;
10465;SDS011;5280;42.600;23.556;2023-04-15T04:45:36;3.60;;;1.37;;
10465;SDS011;5280;42.600;23.556;2023-04-15T04:48:03;2.30;;;1.10;;
10465;SDS011;5280;42.600;23.556;2023-04-15T04:50:33;1.70;;;1.20;;
10465;SDS011;5280;42.600;23.556;2023-04-15T04:53:01;3.60;;;1.50;;
10465;SDS011;5280;42.600;23.556;2023-04-15T04:55:28;2.40;;;1.20;;
10465;SDS011;5280;42.600;23.556;2023-04-15T04:57:56;1.17;;;1.10;;
10465;SDS011;5280;42.600;23.556;2023-04-15T05:00:23;2.30;;;1.37;;
10465;SDS011;5280;42.600;23.556;2023-04-15T05:02:49;1.97;;;1.40;;
10465;SDS011;5280;42.600;23.556;2023-04-15T05:05:16;2.60;;;1.70;;
10465;SDS011;5280;42.600;23.556;2023-04-15T05:07:43;2.00;;;1.90;;
10465;SDS011;5280;42.600;23.556;2023-04-15T05:10:11;2.50;;;2.30;;
10465;SDS011;5280;42.600;23.556;2023-04-15T05:12:39;5.47;;;2.30;;
10465;SDS011;5280;42.600;23.556;2023-04-15T05:15:06;2.93;;;2.27;;
10465;SDS011;5280;42.600;23.556;2023-04-15T05:17:34;2.97;;;2.07;;
10465;SDS011;5280;42.600;23.556;2023-04-15T05:20:01;2.67;;;2.47;;
10465;SDS011;5280;42.600;23.556;2023-04-15T05:22:28;3.87;;;2.67;;
10465;SDS011;5280;42.600;23.556;2023-04-15T05:24:55;2.97;;;2.67;;
10465;SDS011;5280;42.600;23.556;2023-04-15T05:27:23;3.60;;;2.73;;
10465;SDS011;5280;42.600;23.556;2023-04-15T05:29:50;3.03;;;2.73;;
10465;SDS011;5280;42.600;23.556;2023-04-15T05:32:17;4.17;;;3.17;;
10465;SDS011;5280;42.600;23.556;2023-04-15T05:34:44;3.33;;;3.03;;
10465;SDS011;5280;42.600;23.556;2023-04-15T05:37:11;4.37;;;3.47;;
10465;SDS011;5280;42.600;23.556;2023-04-15T05:39:39;6.33;;;4.23;;
10465;SDS011;5280;42.600;23.556;2023-04-15T05:42:06;5.33;;;3.90;;
10465;SDS011;5280;42.600;23.556;2023-04-15T05:44:35;4.03;;;3.63;;
10465;SDS011;5280;42.600;23.556;2023-04-15T05:47:02;5.97;;;3.90;;
10465;SDS011;5280;42.600;23.556;2023-04-15T05:49:30;5.37;;;4.17;;
10465;SDS011;5280;42.600;23.556;2023-04-15T05:51:57;5.47;;;3.80;;
10465;SDS011;5280;42.600;23.556;2023-04-15T05:54:23;5.67;;;4.00;;
10465;SDS011;5280;42.600;23.556;2023-04-15T05:56:52;5.23;;;3.63;;
10465;SDS011;5280;42.600;23.556;2023-04-15T05:59:19;5.00;;;3.63;;
10465;SDS011;5280;42.600;23.556;2023-04-15T06:01:47;6.97;;;3.87;;
10465;SDS011;5280;42.600;23.556;2023-04-15T06:04:16;4.63;;;3.77;;
10465;SDS011;5280;42.600;23.556;2023-04-15T06:06:43;4.20;;;3.50;;
10465;SDS011;5280;42.600;23.556;2023-04-15T06:09:09;4.77;;;3.60;;
10465;SDS011;5280;42.600;23.556;2023-04-15T06:11:36;5.03;;;3.50;;
10465;SDS011;5280;42.600;23.556;2023-04-15T06:14:03;3.27;;;2.90;;
10465;SDS011;5280;42.600;23.556;2023-04-15T06:16:30;4.00;;;3.10;;
10465;SDS011;5280;42.600;23.556;2023-04-15T06:18:58;3.10;;;2.77;;
10465;SDS011;5280;42.600;23.556;2023-04-15T06:21:25;3.13;;;2.83;;
10465;SDS011;5280;42.600;23.556;2023-04-15T06:23:52;6.63;;;3.80;;
10465;SDS011;5280;42.600;23.556;2023-04-15T06:26:19;4.73;;;3.13;;
10465;SDS011;5280;42.600;23.556;2023-04-15T06:28:45;3.87;;;3.03;;
10465;SDS011;5280;42.600;23.556;2023-04-15T06:31:12;5.27;;;3.40;;
10465;SDS011;5280;42.600;23.556;2023-04-15T06:33:40;3.20;;;2.70;;
10465;SDS011;5280;42.600;23.556;2023-04-15T06:36:08;3.00;;;2.70;;
10465;SDS011;5280;42.600;23.556;2023-04-15T06:38:35;4.50;;;3.30;;
10465;SDS011;5280;42.600;23.556;2023-04-15T06:41:02;3.43;;;2.60;;
10465;SDS011;5280;42.600;23.556;2023-04-15T06:43:29;4.43;;;3.00;;
10465;SDS011;5280;42.600;23.556;2023-04-15T06:45:56;2.67;;;2.30;;
10465;SDS011;5280;42.600;23.556;2023-04-15T06:48:23;2.33;;;2.13;;
10465;SDS011;5280;42.600;23.556;2023-04-15T06:50:50;2.70;;;2.43;;
10465;SDS011;5280;42.600;23.556;2023-04-15T06:53:18;3.33;;;2.40;;
10465;SDS011;5280;42.600;23.556;2023-04-15T06:55:45;3.33;;;1.90;;
10465;SDS011;5280;42.600;23.556;2023-04-15T06:58:12;1.77;;;1.67;;
10465;SDS011;5280;42.600;23.556;2023-04-15T07:00:39;1.93;;;1.67;;
10465;SDS011;5280;42.600;23.556;2023-04-15T07:03:06;1.83;;;1.50;;
10465;SDS011;5280;42.600;23.556;2023-04-15T07:05:35;3.27;;;1.40;;
10465;SDS011;5280;42.600;23.556;2023-04-15T07:08:02;2.43;;;1.70;;
10465;SDS011;5280;42.600;23.556;2023-04-15T07:10:32;2.53;;;1.60;;
10465;SDS011;5280;42.600;23.556;2023-04-15T07:12:59;2.20;;;1.70;;
10465;SDS011;5280;42.600;23.556;2023-04-15T07:15:26;1.50;;;1.40;;
10465;SDS011;5280;42.600;23.556;2023-04-15T07:17:53;2.13;;;1.60;;
10465;SDS011;5280;42.600;23.556;2023-04-15T07:20:20;2.20;;;1.30;;
10465;SDS011;5280;42.600;23.556;2023-04-15T07:22:47;2.93;;;2.13;;
10465;SDS011;5280;42.600;23.556;2023-04-15T07:25:14;2.73;;;1.33;;
10465;SDS011;5280;42.600;23.556;2023-04-15T07:27:43;2.17;;;1.40;;
10465;SDS011;5280;42.600;23.556;2023-04-15T07:30:11;1.50;;;1.40;;
10465;SDS011;5280;42.600;23.556;2023-04-15T07:32:38;3.20;;;1.60;;
10465;SDS011;5280;42.600;23.556;2023-04-15T07:35:05;1.53;;;1.43;;
10465;SDS011;5280;42.600;23.556;2023-04-15T07:37:33;1.70;;;1.60;;
10465;SDS011;5280;42.600;23.556;2023-04-15T07:40:04;2.50;;;1.47;;
10465;SDS011;5280;42.600;23.556;2023-04-15T07:42:33;3.00;;;1.30;;
10465;SDS011;5280;42.600;23.556;2023-04-15T07:45:02;1.47;;;1.30;;
10465;SDS011;5280;42.600;23.556;2023-04-15T07:47:29;1.97;;;1.30;;
10465;SDS011;5280;42.600;23.556;2023-04-15T07:49:56;1.53;;;1.27;;
10465;SDS011;5280;42.600;23.556;2023-04-15T07:52:23;3.20;;;1.47;;
10465;SDS011;5280;42.600;23.556;2023-04-15T07:54:49;1.60;;;1.40;;
10465;SDS011;5280;42.600;23.556;2023-04-15T07:57:16;4.93;;;1.70;;
10465;SDS011;5280;42.600;23.556;2023-04-15T07:59:44;1.33;;;1.10;;
10465;SDS011;5280;42.600;23.556;2023-04-15T08:02:12;1.30;;;1.20;;
10465;SDS011;5280;42.600;23.556;2023-04-15T08:04:39;2.20;;;1.40;;
10465;SDS011;5280;42.600;23.556;2023-04-15T08:07:06;2.73;;;1.60;;
10465;SDS011;5280;42.600;23.556;2023-04-15T08:09:33;3.23;;;1.30;;
10465;SDS011;5280;42.600;23.556;2023-04-15T08:12:00;4.07;;;1.57;;
10465;SDS011;5280;42.600;23.556;2023-04-15T08:14:27;2.67;;;1.40;;
10465;SDS011;5280;42.600;23.556;2023-04-15T08:16:55;3.40;;;2.30;;
10465;SDS011;5280;42.600;23.556;2023-04-15T08:19:23;2.33;;;1.63;;
10465;SDS011;5280;42.600;23.556;2023-04-15T08:21:50;2.20;;;1.67;;
10465;SDS011;5280;42.600;23.556;2023-04-15T08:24:16;1.73;;;1.57;;
10465;SDS011;5280;42.600;23.556;2023-04-15T08:26:43;3.20;;;2.03;;
10465;SDS011;5280;42.600;23.556;2023-04-15T08:29:11;2.97;;;1.97;;
10465;SDS011;5280;42.600;23.556;2023-04-15T08:31:37;3.90;;;2.00;;
10465;SDS011;5280;42.600;23.556;2023-04-15T08:34:05;3.43;;;2.10;;
10465;SDS011;5280;42.600;23.556;2023-04-15T08:36:33;2.97;;;1.40;;
10465;SDS011;5280;42.600;23.556;2023-04-15T08:39:00;3.73;;;1.77;;
10465;SDS011;5280;42.600;23.556;2023-04-15T08:41:30;1.40;;;1.30;;
10465;SDS011;5280;42.600;23.556;2023-04-15T08:44:03;3.93;;;1.70;;
10465;SDS011;5280;42.600;23.556;2023-04-15T08:46:31;2.03;;;1.60;;
10465;SDS011;5280;42.600;23.556;2023-04-15T08:48:59;3.13;;;1.77;;
10465;SDS011;5280;42.600;23.556;2023-04-15T08:51:28;3.57;;;1.50;;
10465;SDS011;5280;42.600;23.556;2023-04-15T08:53:58;2.27;;;2.00;;
10465;SDS011;5280;42.600;23.556;2023-04-15T08:56:25;2.50;;;1.47;;
10465;SDS011;5280;42.600;23.556;2023-04-15T08:58:53;3.80;;;1.80;;
10465;SDS011;5280;42.600;23.556;2023-04-15T09:01:20;2.00;;;1.80;;
10465;SDS011;5280;42.600;23.556;2023-04-15T09:03:48;1.90;;;1.37;;
10465;SDS011;5280;42.600;23.556;2023-04-15T09:06:15;2.10;;;1.63;;
10465;SDS011;5280;42.600;23.556;2023-04-15T09:08:43;1.53;;;1.30;;
10465;SDS011;5280;42.600;23.556;2023-04-15T09:11:11;3.30;;;1.37;;
10465;SDS011;5280;42.600;23.556;2023-04-15T09:13:38;1.77;;;1.67;;
10465;SDS011;5280;42.600;23.556;2023-04-15T09:16:06;2.90;;;1.77;;
10465;SDS011;5280;42.600;23.556;2023-04-15T09:18:33;2.93;;;1.53;;
10465;SDS011;5280;42.600;23.556;2023-04-15T09:21:05;2.70;;;1.23;;
10465;SDS011;5280;42.600;23.556;2023-04-15T09:23:33;1.33;;;1.20;;
10465;SDS011;5280;42.600;23.556;2023-04-15T09:26:01;2.23;;;1.30;;
10465;SDS011;5280;42.600;23.556;2023-04-15T09:28:29;1.60;;;1.00;;
10465;SDS011;5280;42.600;23.556;2023-04-15T09:30:56;1.47;;;1.03;;
10465;SDS011;5280;42.600;23.556;2023-04-15T09:33:24;1.87;;;1.10;;
10465;SDS011;5280;42.600;23.556;2023-04-15T09:35:56;2.43;;;1.30;;
10465;SDS011;5280;42.600;23.556;2023-04-15T09:38:24;2.90;;;1.20;;
10465;SDS011;5280;42.600;23.556;2023-04-15T09:40:52;1.93;;;1.40;;
10465;SDS011;5280;42.600;23.556;2023-04-15T09:43:20;1.50;;;1.23;;
10465;SDS011;5280;42.600;23.556;2023-04-15T09:45:48;1.97;;;1.20;;
10465;SDS011;5280;42.600;23.556;2023-04-15T09:48:17;1.60;;;0.93;;
10465;SDS011;5280;42.600;23.556;2023-04-15T09:50:46;1.47;;;1.10;;
10465;SDS011;5280;42.600;23.556;2023-04-15T09:53:18;2.37;;;1.10;;
10465;SDS011;5280;42.600;23.556;2023-04-15T09:55:48;2.17;;;1.37;;
10465;SDS011;5280;42.600;23.556;2023-04-15T09:58:17;1.83;;;1.07;;
10465;SDS011;5280;42.600;23.556;2023-04-15T10:00:45;2.27;;;1.10;;
10465;SDS011;5280;42.600;23.556;2023-04-15T10:03:16;1.20;;;1.10;;
10465;SDS011;5280;42.600;23.556;2023-04-15T10:05:45;2.03;;;1.07;;
10465;SDS011;5280;42.600;23.556;2023-04-15T10:08:15;2.13;;;1.10;;
10465;SDS011;5280;42.600;23.556;2023-04-15T10:10:45;1.67;;;1.20;;
10465;SDS011;5280;42.600;23.556;2023-04-15T10:13:12;1.93;;;1.00;;
10465;SDS011;5280;42.600;23.556;2023-04-15T10:15:42;1.87;;;1.20;;
10465;SDS011;5280;42.600;23.556;2023-04-15T10:18:12;2.50;;;1.30;;
10465;SDS011;5280;42.600;23.556;2023-04-15T10:20:45;2.07;;;1.00;;
10465;SDS011;5280;42.600;23.556;2023-04-15T10:23:13;2.37;;;0.97;;
10465;SDS011;5280;42.600;23.556;2023-04-15T10:25:41;1.27;;;1.10;;
10465;SDS011;5280;42.600;23.556;2023-04-15T10:28:08;2.43;;;1.30;;
10465;SDS011;5280;42.600;23.556;2023-04-15T10:30:35;2.67;;;1.47;;
10465;SDS011;5280;42.600;23.556;2023-04-15T10:33:03;0.90;;;0.90;;
10465;SDS011;5280;42.600;23.556;2023-04-15T10:35:33;1.50;;;1.10;;
10465;SDS011;5280;42.600;23.556;2023-04-15T10:38:01;1.10;;;0.80;;
10465;SDS011;5280;42.600;23.556;2023-04-15T10:40:28;1.30;;;1.20;;
10465;SDS011;5280;42.600;23.556;2023-04-15T10:42:57;1.90;;;1.17;;
10465;SDS011;5280;42.600;23.556;2023-04-15T10:45:25;1.10;;;0.90;;
10465;SDS011;5280;42.600;23.556;2023-04-15T10:47:56;1.47;;;1.20;;
10465;SDS011;5280;42.600;23.556;2023-04-15T10:50:27;2.03;;;0.83;;
10465;SDS011;5280;42.600;23.556;2023-04-15T10:52:56;1.23;;;1.00;;
10465;SDS011;5280;42.600;23.556;2023-04-15T10:55:23;0.93;;;0.80;;
10465;SDS011;5280;42.600;23.556;2023-04-15T10:57:52;1.20;;;1.10;;
10465;SDS011;5280;42.600;23.556;2023-04-15T11:00:23;2.60;;;1.40;;
10465;SDS011;5280;42.600;23.556;2023-04-15T11:02:51;1.10;;;1.00;;
10465;SDS011;5280;42.600;23.556;2023-04-15T11:05:20;2.63;;;1.17;;
10465;SDS011;5280;42.600;23.556;2023-04-15T11:07:49;1.80;;;1.23;;
10465;SDS011;5280;42.600;23.556;2023-04-15T11:13:20;2.10;;;1.30;;
10465;SDS011;5280;42.600;23.556;2023-04-15T11:15:54;1.37;;;1.27;;
10465;SDS011;5280;42.600;23.556;2023-04-15T11:18:24;2.33;;;1.33;;
10465;SDS011;5280;42.600;23.556;2023-04-15T11:20:53;2.43;;;1.13;;
10465;SDS011;5280;42.600;23.556;2023-04-15T11:23:26;1.10;;;0.97;;
10465;SDS011;5280;42.600;23.556;2023-04-15T11:25:56;1.13;;;1.00;;
10465;SDS011;5280;42.600;23.556;2023-04-15T11:28:24;3.40;;;0.80;;
10465;SDS011;5280;42.600;23.556;2023-04-15T11:30:52;3.23;;;1.03;;
10465;SDS011;5280;42.600;23.556;2023-04-15T11:33:19;0.80;;;0.80;;
10465;SDS011;5280;42.600;23.556;2023-04-15T11:35:48;1.00;;;0.90;;
10465;SDS011;5280;42.600;23.556;2023-04-15T11:38:14;1.50;;;1.40;;
10465;SDS011;5280;42.600;23.556;2023-04-15T11:40:42;6.73;;;3.80;;
10465;SDS011;5280;42.600;23.556;2023-04-15T11:43:11;2.87;;;1.80;;
10465;SDS011;5280;42.600;23.556;2023-04-15T11:45:47;1.47;;;1.00;;
10465;SDS011;5280;42.600;23.556;2023-04-15T11:48:15;1.33;;;1.00;;
10465;SDS011;5280;42.600;23.556;2023-04-15T11:50:42;1.10;;;1.07;;
10465;SDS011;5280;42.600;23.556;2023-04-15T11:53:10;1.00;;;0.90;;
10465;SDS011;5280;42.600;23.556;2023-04-15T11:55:42;1.60;;;1.13;;
10465;SDS011;5280;42.600;23.556;2023-04-15T11:58:12;2.30;;;1.80;;
10465;SDS011;5280;42.600;23.556;2023-04-15T12:00:44;1.47;;;1.03;;
10465;SDS011;5280;42.600;23.556;2023-04-15T12:03:16;1.97;;;1.20;;
10465;SDS011;5280;42.600;23.556;2023-04-15T12:06:04;2.93;;;1.10;;
10465;SDS011;5280;42.600;23.556;2023-04-15T12:11:31;1.97;;;0.93;;
10465;SDS011;5280;42.600;23.556;2023-04-15T12:14:04;0.77;;;0.77;;
10465;SDS011;5280;42.600;23.556;2023-04-15T12:16:33;2.63;;;0.93;;
10465;SDS011;5280;42.600;23.556;2023-04-15T12:19:03;2.37;;;0.87;;
10465;SDS011;5280;42.600;23.556;2023-04-15T12:21:35;1.50;;;0.60;;
10465;SDS011;5280;42.600;23.556;2023-04-15T12:24:06;3.17;;;1.00;;
10465;SDS011;5280;42.600;23.556;2023-04-15T12:26:34;3.60;;;1.00;;
10465;SDS011;5280;42.600;23.556;2023-04-15T12:29:06;1.83;;;1.30;;
10465;SDS011;5280;42.600;23.556;2023-04-15T12:31:33;1.13;;;1.03;;
10465;SDS011;5280;42.600;23.556;2023-04-15T12:34:01;2.63;;;0.83;;
10465;SDS011;5280;42.600;23.556;2023-04-15T12:36:29;2.00;;;1.20;;
10465;SDS011;5280;42.600;23.556;2023-04-15T12:39:00;1.80;;;1.10;;
10465;SDS011;5280;42.600;23.556;2023-04-15T12:41:28;2.70;;;1.43;;
10465;SDS011;5280;42.600;23.556;2023-04-15T12:43:55;2.10;;;1.17;;
10465;SDS011;5280;42.600;23.556;2023-04-15T12:46:23;1.17;;;0.97;;
10465;SDS011;5280;42.600;23.556;2023-04-15T12:48:50;2.37;;;0.90;;
10465;SDS011;5280;42.600;23.556;2023-04-15T12:51:17;0.83;;;0.57;;
10465;SDS011;5280;42.600;23.556;2023-04-15T12:53:45;2.20;;;1.13;;
10465;SDS011;5280;42.600;23.556;2023-04-15T12:56:13;1.43;;;0.80;;
10465;SDS011;5280;42.600;23.556;2023-04-15T12:58:40;2.77;;;1.17;;
10465;SDS011;5280;42.600;23.556;2023-04-15T13:01:07;0.90;;;0.90;;
10465;SDS011;5280;42.600;23.556;2023-04-15T13:03:35;2.63;;;0.97;;
10465;SDS011;5280;42.600;23.556;2023-04-15T13:06:02;1.60;;;0.90;;
10465;SDS011;5280;42.600;23.556;2023-04-15T13:08:30;1.93;;;1.10;;
10465;SDS011;5280;42.600;23.556;2023-04-15T13:10:57;2.80;;;1.00;;
10465;SDS011;5280;42.600;23.556;2023-04-15T13:13:23;1.13;;;0.80;;
10465;SDS011;5280;42.600;23.556;2023-04-15T13:15:50;1.53;;;0.83;;
10465;SDS011;5280;42.600;23.556;2023-04-15T13:18:17;0.73;;;0.73;;
10465;SDS011;5280;42.600;23.556;2023-04-15T13:20:45;3.03;;;1.17;;
10465;SDS011;5280;42.600;23.556;2023-04-15T13:23:13;1.43;;;0.80;;
10465;SDS011;5280;42.600;23.556;2023-04-15T13:25:40;2.10;;;0.80;;
10465;SDS011;5280;42.600;23.556;2023-04-15T13:28:06;1.37;;;1.00;;
10465;SDS011;5280;42.600;23.556;2023-04-15T13:30:33;1.50;;;1.20;;
10465;SDS011;5280;42.600;23.556;2023-04-15T13:33:00;2.83;;;1.30;;
10465;SDS011;5280;42.600;23.556;2023-04-15T13:35:26;2.03;;;1.80;;
10465;SDS011;5280;42.600;23.556;2023-04-15T13:37:55;3.40;;;1.37;;
10465;SDS011;5280;42.600;23.556;2023-04-15T13:40:21;2.90;;;1.50;;
10465;SDS011;5280;42.600;23.556;2023-04-15T13:42:49;3.63;;;2.67;;
10465;SDS011;5280;42.600;23.556;2023-04-15T13:45:17;4.77;;;2.23;;
10465;SDS011;5280;42.600;23.556;2023-04-15T13:47:44;4.70;;;2.43;;
10465;SDS011;5280;42.600;23.556;2023-04-15T13:50:10;3.10;;;2.00;;
10465;SDS011;5280;42.600;23.556;2023-04-15T13:52:37;1.30;;;1.20;;
10465;SDS011;5280;42.600;23.556;2023-04-15T13:55:07;3.23;;;1.93;;
10465;SDS011;5280;42.600;23.556;2023-04-15T13:57:35;2.37;;;1.80;;
10465;SDS011;5280;42.600;23.556;2023-04-15T14:00:02;2.20;;;1.50;;
10465;SDS011;5280;42.600;23.556;2023-04-15T14:02:30;3.00;;;1.70;;
10465;SDS011;5280;42.600;23.556;2023-04-15T14:04:57;0.60;;;0.60;;
10465;SDS011;5280;42.600;23.556;2023-04-15T14:07:23;1.50;;;0.93;;
10465;SDS011;5280;42.600;23.556;2023-04-15T14:09:50;3.23;;;1.40;;
10465;SDS011;5280;42.600;23.556;2023-04-15T14:12:18;1.23;;;1.03;;
10465;SDS011;5280;42.600;23.556;2023-04-15T14:14:45;1.93;;;0.80;;
10465;SDS011;5280;42.600;23.556;2023-04-15T14:17:12;1.30;;;0.90;;
10465;SDS011;5280;42.600;23.556;2023-04-15T14:19:39;1.50;;;1.00;;
10465;SDS011;5280;42.600;23.556;2023-04-15T14:22:05;0.80;;;0.80;;
10465;SDS011;5280;42.600;23.556;2023-04-15T14:24:32;1.43;;;0.93;;
10465;SDS011;5280;42.600;23.556;2023-04-15T14:26:59;1.80;;;0.77;;
10465;SDS011;5280;42.600;23.556;2023-04-15T14:29:27;0.67;;;0.67;;
10465;SDS011;5280;42.600;23.556;2023-04-15T14:31:55;0.87;;;0.73;;
10465;SDS011;5280;42.600;23.556;2023-04-15T14:34:23;2.33;;;0.87;;
10465;SDS011;5280;42.600;23.556;2023-04-15T14:36:50;1.70;;;0.83;;
10465;SDS011;5280;42.600;23.556;2023-04-15T14:39:17;1.37;;;1.27;;
10465;SDS011;5280;42.600;23.556;2023-04-15T14:41:44;4.07;;;1.00;;
10465;SDS011;5280;42.600;23.556;2023-04-15T14:44:11;1.90;;;0.90;;
10465;SDS011;5280;42.600;23.556;2023-04-15T14:46:39;2.30;;;0.90;;
10465;SDS011;5280;42.600;23.556;2023-04-15T14:49:06;3.00;;;1.07;;
10465;SDS011;5280;42.600;23.556;2023-04-15T14:51:33;2.57;;;0.80;;
10465;SDS011;5280;42.600;23.556;2023-04-15T14:54:00;1.07;;;0.80;;
10465;SDS011;5280;42.600;23.556;2023-04-15T14:56:27;1.10;;;0.90;;
10465;SDS011;5280;42.600;23.556;2023-04-15T14:58:53;1.20;;;0.80;;
10465;SDS011;5280;42.600;23.556;2023-04-15T15:01:20;0.73;;;0.67;;